Time;durP1;ratioP1;P1;durP2;ratioP2;P2;SDS_P1;SDS_P2;PMS_P1;PMS_P2;Temp;Humidity;BMP_temperature;BMP_pressure;BME280_temperature;BME280_humidity;BME280_pressure;Samples;Min_cycle;Max_cycle;Signal;HPM_P1;HPM_P2
2022/08/29 00:00:17;;;;;;;;;;;24.80;55.20;;;;;;5023958;28;87109;-43
2022/08/29 00:02:42;;;;;;;;;;;24.80;55.20;;;;;;5024085;28;87094;-43
2022/08/29 00:05:08;;;;;;;;;;;24.70;55.20;;;;;;5024185;28;87608;-42
2022/08/29 00:07:34;;;;;;;;;;;24.70;55.20;;;;;;5023669;28;88091;-43
2022/08/29 00:10:01;;;;;;;;;;;24.70;55.20;;;;;;5023890;28;87129;-42
2022/08/29 00:12:26;;;;;;;;;;;24.70;55.20;;;;;;5024230;28;88977;-43
2022/08/29 00:14:52;;;;;;;;;;;24.70;55.30;;;;;;5023900;28;88039;-44
2022/08/29 00:17:17;;;;;;;;;;;24.70;55.20;;;;;;5023611;28;87262;-43
2022/08/29 00:19:43;;;;;;;;;;;24.70;55.20;;;;;;5025846;28;87945;-43
2022/08/29 00:22:27;;;;;;;;;;;24.70;55.20;;;;;;5022674;28;89024;-43
2022/08/29 00:24:53;;;;;;;;;;;24.60;55.20;;;;;;5023790;28;88899;-43
2022/08/29 00:27:18;;;;;;;;;;;24.60;55.20;;;;;;5023275;28;88084;-42
2022/08/29 00:29:44;;;;;;;;;;;24.60;55.20;;;;;;5023896;28;87142;-44
2022/08/29 00:32:09;;;;;;;;;;;24.60;55.30;;;;;;5023649;28;87352;-44
2022/08/29 00:34:35;;;;;;;;;;;24.60;55.20;;;;;;5023408;28;88034;-43
2022/08/29 00:37:00;;;;;;;;;;;24.60;55.30;;;;;;5023844;28;86364;-43
2022/08/29 00:39:26;;;;;;;;;;;24.60;55.40;;;;;;5023772;28;86974;-42
2022/08/29 00:41:51;;;;;;;;;;;24.50;55.30;;;;;;5025847;28;88225;-43
2022/08/29 00:44:17;;;;;;;;;;;24.50;55.20;;;;;;5022945;28;88418;-43
2022/08/29 00:46:45;;;;;;;;;;;24.50;55.30;;;;;;5023114;28;88192;-42
2022/08/29 00:49:11;;;;;;;;;;;24.50;55.30;;;;;;5023268;28;87195;-44
2022/08/29 00:51:37;;;;;;;;;;;24.50;55.40;;;;;;5023436;28;87489;-43
2022/08/29 00:54:05;;;;;;;;;;;24.50;55.40;;;;;;5022798;28;89453;-43
2022/08/29 00:56:31;;;;;;;;;;;24.50;55.40;;;;;;5022887;28;87166;-43
2022/08/29 00:58:59;;;;;;;;;;;24.40;55.40;;;;;;5023317;28;87450;-43
2022/08/29 01:01:25;;;;;;;;;;;24.50;55.40;;;;;;5023618;28;87415;-43
2022/08/29 01:03:51;;;;;;;;;;;24.40;56.00;;;;;;5026381;28;87342;-42
2022/08/29 01:06:18;;;;;;;;;;;24.40;55.40;;;;;;5022773;28;88447;-43
2022/08/29 01:08:44;;;;;;;;;;;24.40;55.30;;;;;;5022155;28;88066;-43
2022/08/29 01:13:55;;;;;;;;;;;24.30;55.40;;;;;;5023094;28;87278;-44
2022/08/29 01:16:22;;;;;;;;;;;24.40;55.40;;;;;;5022848;28;87200;-43
2022/08/29 01:18:51;;;;;;;;;;;24.30;55.40;;;;;;5022667;28;88894;-42
2022/08/29 01:21:19;;;;;;;;;;;24.30;55.50;;;;;;5022113;28;88314;-44
2022/08/29 01:23:53;;;;;;;;;;;24.30;55.50;;;;;;5022928;28;87041;-42
2022/08/29 01:26:20;;;;;;;;;;;24.30;55.60;;;;;;5025892;28;87410;-44
2022/08/29 01:28:48;;;;;;;;;;;24.30;55.50;;;;;;5022786;28;87082;-43
2022/08/29 01:31:19;;;;;;;;;;;24.30;55.60;;;;;;5022750;28;87448;-43
2022/08/29 01:33:55;;;;;;;;;;;24.20;55.50;;;;;;5020714;28;90361;-42
2022/08/29 01:36:23;;;;;;;;;;;24.20;55.60;;;;;;5022647;28;87041;-43
2022/08/29 01:38:48;;;;;;;;;;;24.20;55.50;;;;;;5022618;28;87443;-44
2022/08/29 01:41:15;;;;;;;;;;;24.20;55.50;;;;;;5022252;28;87958;-45
2022/08/29 01:43:46;;;;;;;;;;;24.20;55.50;;;;;;5022647;28;87090;-43
2022/08/29 01:46:13;;;;;;;;;;;24.20;55.60;;;;;;5024781;28;88837;-45
2022/08/29 01:48:40;;;;;;;;;;;24.20;55.50;;;;;;5022139;28;87190;-43
2022/08/29 01:51:06;;;;;;;;;;;24.20;55.50;;;;;;5022946;28;87578;-44
2022/08/29 01:53:31;;;;;;;;;;;24.10;55.50;;;;;;5022508;28;87922;-44
2022/08/29 01:55:57;;;;;;;;;;;24.10;55.60;;;;;;5022661;28;86959;-42
2022/08/29 01:58:22;;;;;;;;;;;24.10;55.60;;;;;;5021921;28;87929;-43
2022/08/29 02:00:48;;;;;;;;;;;24.10;55.60;;;;;;5022223;28;88063;-43
2022/08/29 02:03:13;;;;;;;;;;;24.10;55.70;;;;;;5022129;28;87084;-44
2022/08/29 02:05:39;;;;;;;;;;;24.00;55.70;;;;;;5022423;28;86992;-43
2022/08/29 02:08:04;;;;;;;;;;;24.00;55.60;;;;;;5025078;28;88037;-42
2022/08/29 02:10:30;;;;;;;;;;;24.00;55.60;;;;;;5022462;28;87427;-44
2022/08/29 02:12:57;;;;;;;;;;;24.00;55.60;;;;;;5021958;28;87986;-42
2022/08/29 02:15:22;;;;;;;;;;;24.00;55.60;;;;;;5022710;28;86363;-43
2022/08/29 02:17:48;;;;;;;;;;;23.90;55.70;;;;;;5022034;28;88597;-42
2022/08/29 02:20:13;;;;;;;;;;;23.90;55.70;;;;;;5021760;28;88027;-43
2022/08/29 02:22:39;;;;;;;;;;;23.90;55.70;;;;;;5021502;28;87946;-44
2022/08/29 02:25:40;;;;;;;;;;;23.90;55.80;;;;;;5022284;28;87478;-43
2022/08/29 02:27:51;;;;;;;;;;;23.90;55.70;;;;;;5021324;28;87934;-43
2022/08/29 02:30:18;;;;;;;;;;;23.90;55.70;;;;;;5024873;28;87093;-43
2022/08/29 02:32:43;;;;;;;;;;;23.90;55.70;;;;;;5021528;28;87937;-43
2022/08/29 02:35:09;;;;;;;;;;;23.90;55.80;;;;;;5022093;28;87067;-43
2022/08/29 02:37:34;;;;;;;;;;;23.80;56.40;;;;;;5021733;28;89175;-44
2022/08/29 02:40:00;;;;;;;;;;;23.80;55.90;;;;;;5022362;28;87121;-43
2022/08/29 02:42:25;;;;;;;;;;;23.80;55.80;;;;;;5021996;28;87126;-43
2022/08/29 02:44:51;;;;;;;;;;;23.70;55.80;;;;;;5021946;28;87598;-44
2022/08/29 02:47:17;;;;;;;;;;;23.70;55.80;;;;;;5024131;28;88946;-44
2022/08/29 02:49:42;;;;;;;;;;;23.70;55.80;;;;;;5025043;28;87105;-42
2022/08/29 02:52:08;;;;;;;;;;;23.70;55.80;;;;;;5028042;28;87399;-41
2022/08/29 02:54:33;;;;;;;;;;;23.70;55.80;;;;;;5025365;28;86969;-44
2022/08/29 02:56:59;;;;;;;;;;;23.70;55.80;;;;;;5025163;28;87346;-42
2022/08/29 02:59:24;;;;;;;;;;;23.70;55.90;;;;;;5025074;28;88005;-45
2022/08/29 03:01:52;;;;;;;;;;;23.70;55.90;;;;;;5025019;28;87024;-44
2022/08/29 03:04:18;;;;;;;;;;;23.70;55.90;;;;;;5025390;28;88980;-45
2022/08/29 03:06:43;;;;;;;;;;;23.70;55.80;;;;;;5024700;28;87971;-45
2022/08/29 03:09:09;;;;;;;;;;;23.60;55.80;;;;;;5024949;28;87127;-43
2022/08/29 03:11:34;;;;;;;;;;;23.60;55.90;;;;;;5024519;28;88091;-44
2022/08/29 03:14:00;;;;;;;;;;;23.60;55.90;;;;;;5027465;28;88057;-45
2022/08/29 03:16:26;;;;;;;;;;;23.60;55.90;;;;;;5024411;28;87477;-43
2022/08/29 03:18:51;;;;;;;;;;;23.60;56.00;;;;;;5024601;28;88005;-44
2022/08/29 03:21:19;;;;;;;;;;;23.50;55.90;;;;;;5024461;28;87151;-42
2022/08/29 03:23:45;;;;;;;;;;;23.50;55.90;;;;;;5024886;28;87175;-43
2022/08/29 03:26:10;;;;;;;;;;;23.50;55.90;;;;;;5024028;28;90017;-43
2022/08/29 03:28:36;;;;;;;;;;;23.50;56.00;;;;;;5025159;28;86111;-43
2022/08/29 03:31:01;;;;;;;;;;;23.50;56.00;;;;;;5024734;28;87122;-43
2022/08/29 03:33:27;;;;;;;;;;;23.40;56.00;;;;;;5024318;28;88076;-45
2022/08/29 03:35:52;;;;;;;;;;;23.40;56.00;;;;;;5026962;28;88114;-42
2022/08/29 03:38:18;;;;;;;;;;;23.40;56.10;;;;;;5024361;28;88395;-44
2022/08/29 03:40:43;;;;;;;;;;;23.40;55.90;;;;;;5024694;28;87000;-43
2022/08/29 03:43:10;;;;;;;;;;;23.40;56.00;;;;;;5024648;28;87354;-43
2022/08/29 03:45:35;;;;;;;;;;;23.40;56.00;;;;;;5024286;28;88157;-44
2022/08/29 03:48:01;;;;;;;;;;;23.40;56.00;;;;;;5024152;28;87107;-43
2022/08/29 03:50:26;;;;;;;;;;;23.30;56.00;;;;;;5024344;28;88831;-42
2022/08/29 03:52:52;;;;;;;;;;;23.40;56.10;;;;;;5024599;28;87445;-43
2022/08/29 03:55:18;;;;;;;;;;;23.40;56.10;;;;;;5027269;28;87129;-45
2022/08/29 03:57:44;;;;;;;;;;;23.30;56.10;;;;;;5022822;28;89477;-43
2022/08/29 04:00:12;;;;;;;;;;;23.20;56.10;;;;;;5023628;28;88159;-43
2022/08/29 04:02:39;;;;;;;;;;;23.30;56.20;;;;;;5024429;28;88341;-43
2022/08/29 04:05:08;;;;;;;;;;;23.30;56.20;;;;;;5023587;28;89362;-44
2022/08/29 04:07:48;;;;;;;;;;;23.20;56.20;;;;;;5023968;28;87085;-42
2022/08/29 04:10:16;;;;;;;;;;;23.20;56.20;;;;;;5024150;28;87366;-44
2022/08/29 04:12:42;;;;;;;;;;;23.30;56.20;;;;;;5023517;28;88071;-43
2022/08/29 04:15:08;;;;;;;;;;;23.20;56.20;;;;;;5023977;28;87098;-43
2022/08/29 04:17:34;;;;;;;;;;;23.20;56.20;;;;;;5026520;28;87702;-43
2022/08/29 04:20:00;;;;;;;;;;;23.10;56.30;;;;;;5023920;28;87096;-43
2022/08/29 04:22:25;;;;;;;;;;;23.10;56.30;;;;;;5023443;28;88807;-43
2022/08/29 04:24:51;;;;;;;;;;;23.10;56.30;;;;;;5023142;28;89132;-43
2022/08/29 04:27:16;;;;;;;;;;;23.10;56.30;;;;;;5023593;28;87145;-45
2022/08/29 04:29:42;;;;;;;;;;;23.10;56.30;;;;;;5023658;28;87399;-43
2022/08/29 04:32:08;;;;;;;;;;;23.10;56.30;;;;;;5023477;28;87025;-42
2022/08/29 04:34:33;;;;;;;;;;;23.10;56.30;;;;;;5023699;28;87074;-42
2022/08/29 04:36:59;;;;;;;;;;;23.00;56.40;;;;;;5023777;28;87330;-44
2022/08/29 04:39:24;;;;;;;;;;;23.10;56.40;;;;;;5026325;28;87991;-43
2022/08/29 04:41:50;;;;;;;;;;;23.00;56.40;;;;;;5024035;28;87424;-44
2022/08/29 04:44:15;;;;;;;;;;;23.00;56.40;;;;;;5022938;28;89300;-44
2022/08/29 04:46:41;;;;;;;;;;;23.00;56.40;;;;;;5023700;28;87105;-43
2022/08/29 04:49:06;;;;;;;;;;;23.00;56.40;;;;;;5022976;28;88049;-43
2022/08/29 04:51:33;;;;;;;;;;;23.00;56.40;;;;;;5023397;28;87954;-43
2022/08/29 04:53:58;;;;;;;;;;;23.00;56.50;;;;;;5023188;28;87110;-43
2022/08/29 04:56:24;;;;;;;;;;;22.90;56.50;;;;;;5023452;28;87486;-45
2022/08/29 04:58:50;;;;;;;;;;;22.90;56.40;;;;;;5023014;28;87912;-43
2022/08/29 05:01:17;;;;;;;;;;;23.00;56.50;;;;;;5025984;28;87096;-43
2022/08/29 05:03:43;;;;;;;;;;;22.90;56.50;;;;;;5023052;28;88216;-43
2022/08/29 05:06:10;;;;;;;;;;;22.90;56.50;;;;;;5023671;28;86254;-44
2022/08/29 05:08:37;;;;;;;;;;;22.90;56.50;;;;;;5023125;28;88263;-44
2022/08/29 05:11:05;;;;;;;;;;;22.90;56.60;;;;;;5022488;28;90904;-43
2022/08/29 05:13:31;;;;;;;;;;;22.90;56.70;;;;;;5022180;28;88009;-43
2022/08/29 05:15:57;;;;;;;;;;;22.90;56.60;;;;;;5022983;28;88340;-44
2022/08/29 05:18:22;;;;;;;;;;;22.90;56.60;;;;;;5022801;28;87875;-43
2022/08/29 05:20:48;;;;;;;;;;;22.90;56.60;;;;;;5023034;28;87033;-42
2022/08/29 05:23:15;;;;;;;;;;;22.80;56.60;;;;;;5025296;28;87445;-43
2022/08/29 05:25:41;;;;;;;;;;;22.80;56.80;;;;;;5022848;28;86943;-42
2022/08/29 05:28:06;;;;;;;;;;;22.80;56.80;;;;;;5022765;28;87408;-43
2022/08/29 05:30:32;;;;;;;;;;;22.80;56.80;;;;;;5023234;28;86728;-43
2022/08/29 05:32:58;;;;;;;;;;;22.80;56.80;;;;;;5023099;28;86955;-43
2022/08/29 05:35:23;;;;;;;;;;;22.80;56.90;;;;;;5022962;28;87303;-43
2022/08/29 05:37:49;;;;;;;;;;;22.80;56.90;;;;;;5021828;28;88997;-43
2022/08/29 05:40:14;;;;;;;;;;;22.70;56.80;;;;;;5022872;28;87216;-44
2022/08/29 05:42:40;;;;;;;;;;;22.80;57.00;;;;;;5022871;28;87061;-43
2022/08/29 05:45:06;;;;;;;;;;;22.70;56.90;;;;;;5024951;28;89290;-44
2022/08/29 05:47:32;;;;;;;;;;;22.70;57.00;;;;;;5022665;28;87041;-44
2022/08/29 05:49:58;;;;;;;;;;;22.70;56.90;;;;;;5022043;28;89319;-46
2022/08/29 05:52:23;;;;;;;;;;;22.70;57.00;;;;;;5022576;28;87117;-43
2022/08/29 05:54:49;;;;;;;;;;;22.70;57.00;;;;;;5022998;28;87377;-43
2022/08/29 05:57:16;;;;;;;;;;;22.70;57.10;;;;;;5022106;28;89325;-45
2022/08/29 05:59:41;;;;;;;;;;;22.70;57.00;;;;;;5022130;28;87078;-43
2022/08/29 06:02:08;;;;;;;;;;;22.70;57.10;;;;;;5021694;28;88729;-45
2022/08/29 06:04:33;;;;;;;;;;;22.70;57.20;;;;;;5024883;28;89479;-43
2022/08/29 06:06:59;;;;;;;;;;;22.70;57.10;;;;;;5022616;28;87365;-42
2022/08/29 06:09:24;;;;;;;;;;;22.70;57.10;;;;;;5022214;28;88178;-44
2022/08/29 06:11:51;;;;;;;;;;;22.60;57.20;;;;;;5022203;28;87042;-43
2022/08/29 06:14:17;;;;;;;;;;;22.60;57.30;;;;;;5022247;28;87479;-44
2022/08/29 06:16:43;;;;;;;;;;;22.60;57.30;;;;;;5021680;28;87949;-42
2022/08/29 06:19:08;;;;;;;;;;;22.60;57.30;;;;;;5022801;28;86151;-42
2022/08/29 06:21:34;;;;;;;;;;;22.60;57.30;;;;;;5024089;28;87053;-45
2022/08/29 06:23:59;;;;;;;;;;;22.70;57.40;;;;;;5025449;28;87218;-44
2022/08/29 06:26:25;;;;;;;;;;;22.60;57.30;;;;;;5028116;28;88041;-42
2022/08/29 06:28:50;;;;;;;;;;;22.60;57.30;;;;;;5025336;28;88097;-42
2022/08/29 06:31:19;;;;;;;;;;;22.60;57.30;;;;;;5024255;28;87146;-43
2022/08/29 06:33:45;;;;;;;;;;;22.60;57.30;;;;;;5025462;28;88851;-43
2022/08/29 06:36:10;;;;;;;;;;;22.60;57.30;;;;;;5025311;28;88743;-43
2022/08/29 06:38:36;;;;;;;;;;;22.60;57.30;;;;;;5025377;28;87125;-43
2022/08/29 06:41:02;;;;;;;;;;;22.60;57.30;;;;;;5025725;28;87420;-43
2022/08/29 06:43:28;;;;;;;;;;;22.60;57.30;;;;;;5025439;28;87301;-43
2022/08/29 06:45:53;;;;;;;;;;;22.60;57.40;;;;;;5025463;28;86829;-45
2022/08/29 06:48:19;;;;;;;;;;;22.50;57.20;;;;;;5028153;28;87069;-45
2022/08/29 06:50:44;;;;;;;;;;;22.60;57.40;;;;;;5024778;28;88053;-43
2022/08/29 06:53:10;;;;;;;;;;;22.60;57.40;;;;;;5025223;28;88342;-43
2022/08/29 06:55:36;;;;;;;;;;;22.50;58.00;;;;;;5024938;28;88448;-43
2022/08/29 06:58:02;;;;;;;;;;;22.50;57.50;;;;;;5025071;28;87131;-43
2022/08/29 07:00:28;;;;;;;;;;;22.60;57.50;;;;;;5025251;28;87650;-45
2022/08/29 07:02:53;;;;;;;;;;;22.60;57.50;;;;;;5024698;28;89378;-43
2022/08/29 07:05:20;;;;;;;;;;;22.60;57.30;;;;;;5025140;28;87091;-46
2022/08/29 07:07:45;;;;;;;;;;;22.60;57.50;;;;;;5025274;28;88926;-44
2022/08/29 07:10:13;;;;;;;;;;;22.60;57.50;;;;;;5027408;28;88090;-43
2022/08/29 07:12:38;;;;;;;;;;;22.60;57.40;;;;;;5024797;28;87982;-43
2022/08/29 07:15:04;;;;;;;;;;;22.60;57.50;;;;;;5023974;28;88080;-43
2022/08/29 07:17:30;;;;;;;;;;;22.50;57.50;;;;;;5024279;28;87116;-44
2022/08/29 07:19:56;;;;;;;;;;;22.60;57.50;;;;;;5024870;28;87531;-43
2022/08/29 07:22:21;;;;;;;;;;;22.60;57.50;;;;;;5024177;28;88088;-43
2022/08/29 07:24:47;;;;;;;;;;;22.60;57.60;;;;;;5024742;28;87051;-43
2022/08/29 07:27:13;;;;;;;;;;;22.60;57.50;;;;;;5025014;28;87297;-43
2022/08/29 07:29:39;;;;;;;;;;;22.60;57.60;;;;;;5024413;28;88173;-43
2022/08/29 07:32:05;;;;;;;;;;;22.60;57.50;;;;;;5027063;28;86694;-45
2022/08/29 07:34:31;;;;;;;;;;;22.50;57.50;;;;;;5024291;28;88392;-43
2022/08/29 07:36:56;;;;;;;;;;;22.60;57.60;;;;;;5024260;28;87020;-45
2022/08/29 07:39:22;;;;;;;;;;;22.60;57.70;;;;;;5024160;28;87820;-43
2022/08/29 07:41:48;;;;;;;;;;;22.60;57.70;;;;;;5024233;28;87023;-44
2022/08/29 07:44:14;;;;;;;;;;;22.60;57.80;;;;;;5024372;28;87411;-44
2022/08/29 07:46:40;;;;;;;;;;;22.60;57.70;;;;;;5024372;28;87260;-44
2022/08/29 07:49:06;;;;;;;;;;;22.60;57.70;;;;;;5023959;28;89370;-42
2022/08/29 07:51:32;;;;;;;;;;;22.60;57.60;;;;;;5024601;28;87518;-42
2022/08/29 07:53:57;;;;;;;;;;;22.60;58.20;;;;;;5026910;28;87218;-44
2022/08/29 07:56:29;;;;;;;;;;;22.60;57.70;;;;;;5024998;28;86265;-43
2022/08/29 07:58:55;;;;;;;;;;;22.60;57.70;;;;;;5024038;28;87049;-45
2022/08/29 08:01:21;;;;;;;;;;;22.60;57.70;;;;;;5023920;28;87904;-44
2022/08/29 08:03:48;;;;;;;;;;;22.60;57.70;;;;;;5023502;28;88008;-46
2022/08/29 08:06:14;;;;;;;;;;;22.70;57.70;;;;;;5023977;28;89648;-43
2022/08/29 08:08:39;;;;;;;;;;;22.70;57.60;;;;;;5023604;28;89245;-43
2022/08/29 08:11:07;;;;;;;;;;;22.70;57.80;;;;;;5024093;28;87095;-44
2022/08/29 08:13:34;;;;;;;;;;;22.60;57.70;;;;;;5026318;28;88035;-45
2022/08/29 08:16:03;;;;;;;;;;;22.60;57.80;;;;;;5023845;28;87095;-43
2022/08/29 08:18:29;;;;;;;;;;;22.60;58.00;;;;;;5023502;28;87529;-43
2022/08/29 08:20:54;;;;;;;;;;;22.60;57.80;;;;;;5024033;28;88789;-43
2022/08/29 08:23:20;;;;;;;;;;;22.60;57.80;;;;;;5023867;28;87018;-44
2022/08/29 08:25:46;;;;;;;;;;;22.70;57.90;;;;;;5024014;28;87376;-45
2022/08/29 08:28:12;;;;;;;;;;;22.70;57.90;;;;;;5022955;28;90450;-43
2022/08/29 08:30:37;;;;;;;;;;;22.70;57.90;;;;;;5024050;28;87026;-45
2022/08/29 08:33:03;;;;;;;;;;;22.70;57.90;;;;;;5023817;28;87324;-43
2022/08/29 08:35:29;;;;;;;;;;;22.60;58.00;;;;;;5026371;28;88041;-44
2022/08/29 08:37:55;;;;;;;;;;;22.70;57.90;;;;;;5023760;28;87450;-44
2022/08/29 08:40:25;;;;;;;;;;;22.70;58.00;;;;;;5023380;28;87913;-44
2022/08/29 08:42:54;;;;;;;;;;;22.70;58.00;;;;;;5023360;28;87167;-42
2022/08/29 08:45:25;;;;;;;;;;;22.70;58.00;;;;;;5023957;28;87545;-44
2022/08/29 08:48:08;;;;;;;;;;;22.70;58.00;;;;;;5023135;28;89303;-44
2022/08/29 08:50:53;;;;;;;;;;;22.70;58.10;;;;;;5023151;28;87008;-44
2022/08/29 08:53:22;;;;;;;;;;;22.60;58.10;;;;;;5022924;28;87938;-44
2022/08/29 08:55:49;;;;;;;;;;;22.70;58.00;;;;;;5022985;28;87939;-42
2022/08/29 08:58:23;;;;;;;;;;;22.70;58.10;;;;;;5026193;28;87171;-44
2022/08/29 09:00:54;;;;;;;;;;;22.70;58.10;;;;;;5022763;28;89374;-43
2022/08/29 09:03:20;;;;;;;;;;;22.70;58.60;;;;;;5023161;28;87092;-44
2022/08/29 09:05:48;;;;;;;;;;;22.70;58.00;;;;;;5022751;28;88805;-44
2022/08/29 09:08:20;;;;;;;;;;;22.70;58.10;;;;;;5022976;28;87970;-47
2022/08/29 09:11:00;;;;;;;;;;;22.70;58.10;;;;;;5024038;28;86368;-42
2022/08/29 09:13:26;;;;;;;;;;;22.70;58.10;;;;;;5023374;28;87064;-43
2022/08/29 09:15:53;;;;;;;;;;;22.70;58.00;;;;;;5022714;28;88014;-43
2022/08/29 09:18:31;;;;;;;;;;;22.70;58.00;;;;;;5022173;28;88113;-44
2022/08/29 09:20:58;;;;;;;;;;;22.80;58.00;;;;;;5025536;28;87551;-45
2022/08/29 09:23:59;;;;;;;;;;;22.80;58.00;;;;;;5022382;28;87108;-42
2022/08/29 09:26:28;;;;;;;;;;;22.80;58.00;;;;;;5020662;28;87592;-44
2022/08/29 09:28:54;;;;;;;;;;;22.80;58.00;;;;;;5021600;28;89366;-42
2022/08/29 09:31:22;;;;;;;;;;;22.80;58.60;;;;;;5022835;28;87055;-42
2022/08/29 09:34:02;;;;;;;;;;;22.80;57.90;;;;;;5022951;28;87227;-43
2022/08/29 09:36:47;;;;;;;;;;;22.80;58.00;;;;;;5023229;28;87376;-44
2022/08/29 09:39:21;;;;;;;;;;;22.80;57.90;;;;;;5022420;28;86877;-44
2022/08/29 09:41:48;;;;;;;;;;;22.80;58.00;;;;;;5022642;28;86985;-44
2022/08/29 09:44:18;;;;;;;;;;;22.80;57.90;;;;;;5024523;28;88966;-43
2022/08/29 09:46:44;;;;;;;;;;;22.80;57.90;;;;;;5022483;28;88396;-45
2022/08/29 09:49:12;;;;;;;;;;;22.80;57.80;;;;;;5022404;28;87999;-42
2022/08/29 09:51:40;;;;;;;;;;;22.90;57.80;;;;;;5022203;28;86979;-43
2022/08/29 09:54:25;;;;;;;;;;;22.90;57.80;;;;;;5022508;28;87508;-43
2022/08/29 09:56:57;;;;;;;;;;;22.90;57.80;;;;;;5021156;28;87151;-43
2022/08/29 09:59:26;;;;;;;;;;;22.90;57.80;;;;;;5021974;28;87130;-46
2022/08/29 10:02:15;;;;;;;;;;;22.90;57.80;;;;;;5022887;28;87763;-44
2022/08/29 10:04:42;;;;;;;;;;;22.90;57.90;;;;;;5022152;28;87471;-44
2022/08/29 10:07:09;;;;;;;;;;;22.90;58.00;;;;;;5025270;28;87121;-45
2022/08/29 10:09:35;;;;;;;;;;;23.00;58.00;;;;;;5021270;28;88916;-43
2022/08/29 10:12:22;;;;;;;;;;;23.00;57.80;;;;;;5022248;28;87154;-43
2022/08/29 10:14:50;;;;;;;;;;;23.00;58.00;;;;;;5022255;28;87875;-44
2022/08/29 10:20:04;;;;;;;;;;;23.00;57.90;;;;;;5022688;28;86911;-43
2022/08/29 10:22:42;;;;;;;;;;;23.00;57.90;;;;;;5021522;28;88869;-45
2022/08/29 10:25:13;;;;;;;;;;;23.00;57.90;;;;;;5021542;28;88717;-42
2022/08/29 10:27:39;;;;;;;;;;;23.10;58.60;;;;;;5025971;28;86939;-51
2022/08/29 10:30:19;;;;;;;;;;;23.00;57.80;;;;;;5038883;28;88005;-43
2022/08/29 10:32:47;;;;;;;;;;;23.10;60.20;;;;;;5042449;28;86997;-45
2022/08/29 10:35:13;;;;;;;;;;;23.00;59.80;;;;;;5041523;28;87882;-46
2022/08/29 10:37:38;;;;;;;;;;;23.10;59.90;;;;;;5041714;28;87818;-44
2022/08/29 10:40:22;;;;;;;;;;;23.10;59.40;;;;;;5042446;28;87081;-44
2022/08/29 10:42:49;;;;;;;;;;;23.20;59.10;;;;;;5042131;27;87357;-43
2022/08/29 10:45:20;;;;;;;;;;;23.20;58.60;;;;;;5041764;28;87958;-44
2022/08/29 10:47:46;;;;;;;;;;;23.20;58.70;;;;;;5042119;28;86975;-43
2022/08/29 10:50:11;;;;;;;;;;;23.20;58.70;;;;;;5044435;27;87156;-44
2022/08/29 10:52:45;;;;;;;;;;;23.20;58.70;;;;;;5042577;28;86901;-44
2022/08/29 10:55:18;;;;;;;;;;;23.20;58.60;;;;;;5041768;28;87021;-44
2022/08/29 10:57:49;;;;;;;;;;;23.30;60.80;;;;;;5041661;28;88098;-45
2022/08/29 11:00:20;;;;;;;;;;;23.30;60.30;;;;;;5040796;28;88067;-46
2022/08/29 11:03:04;;;;;;;;;;;23.50;59.90;;;;;;5039978;27;90216;-46
2022/08/29 11:05:44;;;;;;;;;;;23.60;59.60;;;;;;5041334;27;87249;-58
2022/08/29 11:08:13;;;;;;;;;;;23.70;58.70;;;;;;5044505;27;87111;-46
2022/08/29 11:10:44;;;;;;;;;;;23.80;58.90;;;;;;5044680;27;87473;-44
2022/08/29 11:13:13;;;;;;;;;;;23.90;59.30;;;;;;5047449;28;88079;-45
2022/08/29 11:15:51;;;;;;;;;;;23.90;59.40;;;;;;5045158;28;87279;-45
2022/08/29 11:18:34;;;;;;;;;;;23.90;59.40;;;;;;5044672;28;88542;-44
2022/08/29 11:21:10;;;;;;;;;;;23.90;58.50;;;;;;5044886;28;87234;-48
2022/08/29 11:23:36;;;;;;;;;;;24.00;59.20;;;;;;5044647;28;87007;-45
2022/08/29 11:26:04;;;;;;;;;;;24.10;57.50;;;;;;5043692;28;89661;-50
2022/08/29 11:28:36;;;;;;;;;;;24.00;58.10;;;;;;5044729;28;86981;-42
2022/08/29 11:31:04;;;;;;;;;;;23.90;54.70;;;;;;5045117;27;86940;-45
2022/08/29 11:33:45;;;;;;;;;;;24.00;55.50;;;;;;5044218;28;89393;-50
2022/08/29 11:36:13;;;;;;;;;;;24.10;53.50;;;;;;5047569;28;87084;-46
2022/08/29 11:39:03;;;;;;;;;;;24.20;50.70;;;;;;5044514;28;88317;-45
2022/08/29 11:41:31;;;;;;;;;;;24.30;50.30;;;;;;5044926;28;86977;-48
2022/08/29 11:44:03;;;;;;;;;;;24.20;50.00;;;;;;5044833;28;88962;-56
2022/08/29 11:46:37;;;;;;;;;;;24.20;47.90;;;;;;5044436;28;87990;-56
2022/08/29 11:49:20;;;;;;;;;;;24.30;47.20;;;;;;5044585;28;86983;-46
2022/08/29 11:51:50;;;;;;;;;;;24.30;48.80;;;;;;5044117;27;87933;-51
2022/08/29 11:54:27;;;;;;;;;;;24.30;46.60;;;;;;5043931;28;89272;-47
2022/08/29 11:56:59;;;;;;;;;;;24.30;46.30;;;;;;5044270;28;87124;-51
2022/08/29 11:59:43;;;;;;;;;;;24.40;47.40;;;;;;5047046;28;87365;-49
2022/08/29 12:02:09;;;;;;;;;;;24.60;48.70;;;;;;5044269;28;87094;-48
2022/08/29 12:04:53;;;;;;;;;;;24.70;50.50;;;;;;5044446;28;87446;-56
2022/08/29 12:07:20;;;;;;;;;;;24.80;50.40;;;;;;5044080;27;88083;-50
2022/08/29 12:09:48;;;;;;;;;;;24.70;48.50;;;;;;5044956;28;87256;-48
2022/08/29 12:12:36;;;;;;;;;;;24.70;47.00;;;;;;5044158;27;86980;-52
2022/08/29 12:15:21;;;;;;;;;;;24.60;46.80;;;;;;5043951;28;87929;-47
2022/08/29 12:17:47;;;;;;;;;;;24.50;50.10;;;;;;5042360;27;87947;-45
2022/08/29 12:20:14;;;;;;;;;;;24.50;53.20;;;;;;5046442;27;88345;-42
2022/08/29 12:22:46;;;;;;;;;;;24.60;54.90;;;;;;5043682;28;90631;-43
2022/08/29 12:25:26;;;;;;;;;;;24.50;55.80;;;;;;5044147;27;88042;-47
2022/08/29 12:28:00;;;;;;;;;;;24.50;56.80;;;;;;5042364;28;89136;-41
2022/08/29 12:30:36;;;;;;;;;;;24.50;57.00;;;;;;5043960;28;87091;-43
2022/08/29 12:33:24;;;;;;;;;;;24.50;57.00;;;;;;5026868;28;87288;-44
2022/08/29 12:36:00;;;;;;;;;;;24.50;56.30;;;;;;5023795;28;88767;-42
2022/08/29 12:38:52;;;;;;;;;;;24.50;56.10;;;;;;5023428;28;87147;-42
2022/08/29 12:41:32;;;;;;;;;;;24.50;57.00;;;;;;5021748;28;87491;-48
2022/08/29 12:43:59;;;;;;;;;;;24.50;58.30;;;;;;5025497;28;89068;-46
2022/08/29 12:46:36;;;;;;;;;;;24.50;58.30;;;;;;5023480;28;90122;-45
2022/08/29 12:49:17;;;;;;;;;;;24.60;58.40;;;;;;5023156;28;87591;-44
2022/08/29 12:51:46;;;;;;;;;;;24.60;57.70;;;;;;5023834;28;86777;-41
2022/08/29 12:54:11;;;;;;;;;;;24.60;58.00;;;;;;5023274;28;87430;-41
2022/08/29 12:56:41;;;;;;;;;;;24.60;58.00;;;;;;5023186;28;88019;-42
2022/08/29 12:59:14;;;;;;;;;;;24.50;57.40;;;;;;5023074;28;87050;-43
2022/08/29 13:01:44;;;;;;;;;;;24.50;58.00;;;;;;5024257;28;87354;-46
2022/08/29 13:04:10;;;;;;;;;;;24.50;57.60;;;;;;5022814;28;88098;-41
2022/08/29 13:06:36;;;;;;;;;;;24.50;57.80;;;;;;5025843;28;87176;-42
2022/08/29 13:09:04;;;;;;;;;;;24.40;57.70;;;;;;5022237;28;88971;-39
2022/08/29 13:11:30;;;;;;;;;;;24.30;57.50;;;;;;5023022;28;87106;-41
2022/08/29 13:14:03;;;;;;;;;;;24.30;57.70;;;;;;5023450;28;87353;-41
2022/08/29 13:16:29;;;;;;;;;;;24.30;58.20;;;;;;5022525;28;88249;-41
2022/08/29 13:18:55;;;;;;;;;;;24.20;58.50;;;;;;5022643;28;87984;-42
2022/08/29 13:21:27;;;;;;;;;;;24.20;59.20;;;;;;5022699;28;87390;-46
2022/08/29 13:23:57;;;;;;;;;;;24.10;60.00;;;;;;5022678;28;88009;-42
2022/08/29 13:26:26;;;;;;;;;;;24.10;60.00;;;;;;5023100;28;86372;-43
2022/08/29 13:28:51;;;;;;;;;;;24.20;61.30;;;;;;5025218;28;87962;-46
2022/08/29 13:31:17;;;;;;;;;;;24.10;62.40;;;;;;5021802;28;87240;-47
2022/08/29 13:33:49;;;;;;;;;;;24.00;63.90;;;;;;5022154;28;88736;-45
2022/08/29 13:36:33;;;;;;;;;;;24.00;64.40;;;;;;5022334;28;89956;-50
2022/08/29 13:39:28;;;;;;;;;;;24.00;64.40;;;;;;5022461;28;87501;-46
2022/08/29 13:42:00;;;;;;;;;;;24.00;64.60;;;;;;5020794;28;88960;-45
2022/08/29 13:44:30;;;;;;;;;;;23.90;64.20;;;;;;5022372;28;88037;-42
2022/08/29 13:47:00;;;;;;;;;;;23.90;65.40;;;;;;5022544;28;87141;-44
2022/08/29 13:49:28;;;;;;;;;;;23.90;66.60;;;;;;5035651;28;87695;-47
2022/08/29 13:51:54;;;;;;;;;;;23.80;67.80;;;;;;5045598;28;87178;-46
2022/08/29 13:54:20;;;;;;;;;;;23.70;67.80;;;;;;5042726;28;87389;-44
2022/08/29 13:56:46;;;;;;;;;;;23.70;67.00;;;;;;5042249;27;88331;-46
2022/08/29 13:59:13;;;;;;;;;;;23.70;66.50;;;;;;5042152;28;87916;-44
2022/08/29 14:01:38;;;;;;;;;;;23.70;66.20;;;;;;5042784;28;88710;-41
2022/08/29 14:04:04;;;;;;;;;;;23.70;67.00;;;;;;5042464;28;88019;-41
2022/08/29 14:06:31;;;;;;;;;;;23.60;66.70;;;;;;5042738;28;87116;-42
2022/08/29 14:08:58;;;;;;;;;;;23.70;66.60;;;;;;5042169;27;88616;-46
2022/08/29 14:11:24;;;;;;;;;;;23.60;67.90;;;;;;5042051;28;89519;-54
2022/08/29 14:13:50;;;;;;;;;;;23.60;68.20;;;;;;5045539;28;87056;-44
2022/08/29 14:16:15;;;;;;;;;;;23.70;67.30;;;;;;5042862;28;87303;-41
2022/08/29 14:18:41;;;;;;;;;;;23.70;66.60;;;;;;5042315;28;87122;-45
2022/08/29 14:21:06;;;;;;;;;;;23.60;67.10;;;;;;5042552;28;86954;-45
2022/08/29 14:23:32;;;;;;;;;;;23.60;67.80;;;;;;5041110;28;89336;-45
2022/08/29 14:25:57;;;;;;;;;;;23.60;67.40;;;;;;5042378;28;87489;-43
2022/08/29 14:28:23;;;;;;;;;;;23.60;66.80;;;;;;5042124;27;88783;-42